createdAt,value
2022-09-06T00:07:51.707Z,84.84
2022-09-06T00:15:16.308Z,86.28
2022-09-06T00:20:35.998Z,86.43
2022-09-06T00:29:09.042Z,86.64
2022-09-06T00:31:14.522Z,84.41
2022-09-06T00:41:53.573Z,85.38
2022-09-06T00:47:12.987Z,85.15
2022-09-06T00:52:31.967Z,85.82
2022-09-06T00:57:50.749Z,86.94
2022-09-06T01:03:09.682Z,87.05
2022-09-06T01:08:38.613Z,88.41
2022-09-06T01:13:48.048Z,88.09
2022-09-06T01:19:18.223Z,89.01
2022-09-06T01:24:36.979Z,88.52
2022-09-06T01:29:44.892Z,88.48
2022-09-06T01:35:03.744Z,89.76
2022-09-06T01:43:47.805Z,90.19
2022-09-06T01:48:05.362Z,91.07
2022-09-06T01:52:09.860Z,91.57
2022-09-06T01:56:20.614Z,91.07
2022-09-06T02:01:39.636Z,90.74
2022-09-06T02:06:58.943Z,90.24
2022-09-06T02:12:18.617Z,89.61
2022-09-06T02:17:49.387Z,89.53
2022-09-06T02:26:22.427Z,89.61
2022-09-06T02:30:39.017Z,89.8
2022-09-06T02:34:43.468Z,89.95
2022-09-06T02:44:13.693Z,90
2022-09-06T02:49:33.026Z,90.36
2022-09-06T02:54:51.879Z,90.67
2022-09-06T03:00:21.295Z,90.69
2022-09-06T03:05:30.726Z,90.42
2022-09-06T03:10:49.559Z,90.29
2022-09-06T03:16:08.649Z,90.68
2022-09-06T03:21:28.031Z,90.33
2022-09-06T03:30:01.123Z,88.39
2022-09-06T03:42:44.845Z,83.81
2022-09-06T03:48:04.395Z,83.93
2022-09-06T03:53:23.909Z,84.81
2022-09-06T03:58:54.274Z,85.71
2022-09-06T04:04:02.059Z,85.88
2022-09-06T04:09:20.921Z,85.62
2022-09-06T04:17:54.005Z,86.56
2022-09-06T04:19:59.255Z,86.9
2022-09-06T04:30:47.891Z,87.84
2022-09-06T04:35:56.169Z,86.94
2022-09-06T04:41:15.643Z,86.48
2022-09-06T04:46:44.735Z,86.56
2022-09-06T04:51:54.421Z,86.57
2022-09-06T04:57:13.382Z,86.52
2022-09-06T05:02:32.725Z,85.02
2022-09-06T05:11:05.745Z,82.41
2022-09-06T05:15:22.242Z,82.82
2022-09-06T05:18:30.939Z,84.34
2022-09-06T05:24:01.200Z,85.1
2022-09-06T05:29:09.196Z,85.58
2022-09-06T05:34:39.938Z,85.79
2022-09-06T05:43:01.984Z,85.84
2022-09-06T05:45:07.109Z,86.92
2022-09-06T05:50:38.650Z,86.65
2022-09-06T05:58:59.707Z,87.13
2022-09-06T06:01:05.201Z,85.73
2022-09-06T06:11:42.902Z,79.87
2022-09-06T06:17:02.113Z,78.48
2022-09-06T06:25:35.067Z,78.41
2022-09-06T06:27:39.962Z,76.97
2022-09-06T06:32:59.287Z,77.12
2022-09-06T06:38:18.328Z,76.96
2022-09-06T06:43:49.430Z,76.01
2022-09-06T06:52:22.463Z,76.92
2022-09-06T07:00:43.624Z,77.56
2022-09-06T07:04:54.083Z,75.44
2022-09-06T07:15:32.634Z,75.39
2022-09-06T07:26:10.830Z,73.39
2022-09-06T07:34:43.897Z,71.98
2022-09-06T07:36:49.195Z,69.57
2022-09-06T07:47:57.214Z,68.22
2022-09-06T07:53:13.018Z,66.55
2022-09-06T07:58:05.725Z,67.08
2022-09-06T08:10:55.315Z,63.48
2022-09-06T08:19:22.594Z,55.09
2022-09-06T08:24:41.947Z,52.28
2022-09-06T08:30:00.998Z,50.34
2022-09-06T08:35:20.009Z,50.81
2022-09-06T08:40:39.435Z,48.75
2022-09-06T08:46:09.695Z,48.67
2022-09-06T08:51:18.140Z,46.73
2022-09-06T08:56:37.067Z,46.13
2022-09-06T09:01:56.277Z,44.06
2022-09-06T09:07:15.738Z,44.73
2022-09-06T09:12:34.426Z,45.02
2022-09-06T09:17:53.631Z,42.71
2022-09-06T09:26:26.671Z,43.96
2022-09-06T09:28:32.014Z,44.29
2022-09-06T09:39:10.454Z,45.55
2022-09-06T09:44:29.096Z,44.69
2022-09-06T09:49:47.966Z,44.23
2022-09-06T09:58:21.041Z,44.72
2022-09-06T10:00:26.699Z,45.74
2022-09-06T10:05:45.635Z,44.93
2022-09-06T10:11:05.158Z,45.95
2022-09-06T10:16:24.011Z,44.89
2022-09-06T10:21:42.961Z,44.11
2022-09-06T10:30:16.012Z,44.46
2022-09-06T10:32:21.901Z,44.42
2022-09-06T10:43:00.526Z,43.31
2022-09-06T10:48:19.795Z,42.64
2022-09-06T10:56:52.875Z,41.41
2022-09-06T11:05:37.989Z,40.59
2022-09-06T11:09:42.458Z,40.61
2022-09-06T11:18:15.520Z,39.86
2022-09-06T11:30:54.066Z,40.43
2022-09-06T11:36:13.281Z,38.82
2022-09-06T11:41:32.406Z,39.25
2022-09-06T11:46:51.305Z,39.18
2022-09-06T11:52:10.757Z,39.73
2022-09-06T11:57:29.657Z,38.93
2022-09-06T12:06:02.704Z,40.47
2022-09-06T12:08:07.874Z,37.99
2022-09-06T12:13:26.671Z,38.25
2022-09-06T12:18:45.901Z,38.38
2022-09-06T12:24:04.655Z,36.99
2022-09-06T12:29:23.873Z,36.84
2022-09-06T12:37:56.964Z,38.3
2022-09-06T12:40:02.034Z,37.45
2022-09-06T12:45:23.969Z,38.12
2022-09-06T12:50:45.307Z,36.11
2022-09-06T12:55:58.591Z,37.63
2022-09-06T13:04:31.653Z,36.23
2022-09-06T13:06:36.538Z,36.08
2022-09-06T13:11:55.218Z,35.46
2022-09-06T13:17:14.295Z,36.06
2022-09-06T13:25:47.357Z,36.82
2022-09-06T13:31:34.559Z,34.77
2022-09-06T13:36:53.261Z,34.61
2022-09-06T13:42:12.645Z,34.97
2022-09-06T13:47:31.397Z,34.22
2022-09-06T13:52:50.922Z,33.91
2022-09-06T13:58:09.657Z,33.48
2022-09-06T14:03:29.044Z,31.67
2022-09-06T14:17:21.384Z,34.84
2022-09-06T14:19:27.117Z,35
2022-09-06T14:30:05.733Z,36.34
2022-09-06T14:35:24.725Z,36.91
2022-09-06T14:43:57.789Z,35.2
2022-09-06T14:46:03.106Z,35.4
2022-09-06T14:51:22.271Z,34.2
2022-09-06T14:56:41.679Z,37.95
2022-09-06T15:02:01.358Z,37.25
2022-09-06T15:07:20.112Z,38.39
2022-09-06T15:12:39.449Z,39.93
2022-09-06T15:17:58.903Z,43.11
2022-09-06T15:23:25.631Z,44.26
2022-09-06T15:28:36.970Z,47.15
2022-09-06T15:33:55.748Z,49.33
2022-09-06T15:39:25.697Z,50.92
2022-09-06T15:44:33.348Z,51.26
2022-09-06T15:53:06.392Z,47.38
2022-09-06T15:55:12.124Z,62.07
2022-09-06T16:00:31.531Z,70.46
2022-09-06T16:11:09.838Z,82.32
2022-09-06T16:16:29.457Z,76.26
2022-09-06T16:25:02.469Z,81.43
2022-09-06T16:29:18.999Z,81.81
2022-09-06T16:37:58.217Z,78.51
2022-09-06T16:43:04.923Z,76.83
2022-09-06T16:48:35.471Z,82.55
2022-09-06T16:53:44.051Z,89.26
2022-09-06T16:59:03.097Z,81.44
2022-09-06T17:07:36.127Z,83.26
2022-09-06T17:09:41.939Z,80.74
2022-09-06T17:15:01.317Z,90.76
2022-09-06T17:23:34.393Z,87.03
2022-09-06T17:25:38.731Z,87.3
2022-09-06T17:30:58.299Z,84.54
2022-09-06T17:37:32.425Z,88.25
2022-09-06T17:41:36.592Z,90.04
2022-09-06T17:47:12.318Z,87.55
2022-09-06T17:52:14.355Z,87.5
2022-09-06T17:57:33.725Z,85.36
2022-09-06T18:02:53.453Z,83.44
2022-09-06T18:08:12.093Z,87.27
2022-09-06T18:14:36.381Z,90.91
2022-09-06T18:18:51.489Z,92.49
2022-09-06T18:24:10.721Z,91.17
2022-09-06T18:31:09.321Z,93.3
2022-09-06T18:34:49.123Z,83.3
2022-09-06T18:41:47.727Z,89.31
2022-09-06T18:45:26.840Z,90.95
2022-09-06T18:50:59.273Z,90.91
2022-09-06T18:57:20.037Z,90.57
2022-09-06T19:01:25.127Z,92.45
2022-09-06T19:06:43.195Z,88.2
2022-09-06T19:13:07.488Z,90.41
2022-09-06T19:17:22.743Z,92.45
2022-09-06T19:23:50.606Z,94.24
2022-09-06T19:28:02.038Z,95.17
2022-09-06T19:33:21.354Z,95.49
2022-09-06T19:39:01.815Z,95.63
2022-09-06T19:43:59.434Z,96.01
2022-09-06T19:49:19.646Z,96.28
2022-09-06T19:55:53.825Z,96.23
2022-09-06T20:05:28.982Z,95.36
2022-09-06T20:10:37.514Z,94.29
2022-09-06T20:17:36.091Z,94.05
2022-09-06T20:21:16.982Z,94.23
2022-09-06T20:26:35.867Z,94.71
2022-09-06T20:35:08.938Z,95.15
2022-09-06T20:42:33.757Z,95.13
2022-09-06T20:47:53.367Z,95.53
2022-09-06T20:53:12.478Z,96.51
2022-09-06T20:58:31.152Z,95.22
2022-09-06T21:03:50.447Z,94.67
2022-09-06T21:09:08.778Z,95.18
2022-09-06T21:14:35.695Z,95.26
2022-09-06T21:19:47.190Z,96.02
2022-09-06T21:25:06.885Z,93.79
2022-09-06T21:30:35.178Z,94.08
2022-09-06T21:35:44.653Z,93.56
2022-09-06T21:42:18.829Z,93.46
2022-09-06T21:46:23.135Z,93.4
2022-09-06T21:53:21.666Z,94.19
2022-09-06T21:57:38.160Z,95.89
2022-09-06T22:02:28.419Z,91.08
2022-09-06T22:07:48.958Z,91.64
2022-09-06T22:12:59.076Z,92.78
2022-09-06T22:19:33.479Z,93.72
2022-09-06T22:23:37.480Z,94.67
2022-09-06T22:28:56.905Z,95.55
2022-09-06T22:34:15.683Z,96.48
2022-09-06T22:39:34.470Z,97.05
2022-09-06T22:44:54.249Z,97.5
2022-09-06T22:50:13.378Z,97.65
2022-09-06T22:55:32.278Z,97.84
2022-09-06T23:02:06.394Z,97.89
2022-09-06T23:06:10.484Z,97.97
2022-09-06T23:11:29.188Z,98.02
2022-09-06T23:16:48.816Z,98.07
2022-09-06T23:22:08.102Z,98.09
2022-09-06T23:27:26.956Z,98.24
2022-09-06T23:32:46.016Z,98.26
2022-09-06T23:38:04.533Z,98.12
2022-09-06T23:43:24.130Z,98.45
2022-09-06T23:48:43.277Z,98.41
2022-09-06T23:54:02.729Z,98.43
2022-09-06T23:59:21.136Z,98.42
